Time;durP1;ratioP1;P1;durP2;ratioP2;P2;SDS_P1;SDS_P2;PMS_P1;PMS_P2;Temp;Humidity;BMP_temperature;BMP_pressure;BME280_temperature;BME280_humidity;BME280_pressure;Samples;Min_cycle;Max_cycle;Signal;HPM_P1;HPM_P2
2023/06/14 00:00:42;;;;;;;2.47;1.60;;;25.60;38.20;;;;;;5017404;28;20036;-65
2023/06/14 00:03:09;;;;;;;1.90;1.40;;;25.50;38.20;;;;;;5031876;28;20030;-65
2023/06/14 00:05:40;;;;;;;2.08;1.60;;;25.50;38.30;;;;;;5032014;28;20036;-65
2023/06/14 00:08:07;;;;;;;2.70;1.50;;;25.50;38.20;;;;;;5036371;28;20025;-65
2023/06/14 00:10:35;;;;;;;2.08;1.55;;;25.50;38.20;;;;;;5034397;28;20033;-65
2023/06/14 00:13:02;;;;;;;2.60;1.80;;;25.50;38.30;;;;;;5036060;28;20507;-65
2023/06/14 00:15:28;;;;;;;2.53;1.80;;;25.50;38.30;;;;;;5034053;28;20111;-65
2023/06/14 00:17:54;;;;;;;2.28;1.60;;;25.50;38.30;;;;;;5034317;28;20017;-64
2023/06/14 00:20:20;;;;;;;2.35;1.50;;;25.50;38.40;;;;;;5037595;28;20025;-65
2023/06/14 00:22:47;;;;;;;2.20;1.50;;;25.50;38.40;;;;;;5017598;28;20017;-65
2023/06/14 00:25:13;;;;;;;2.45;1.50;;;25.40;38.40;;;;;;5034863;28;20037;-67
2023/06/14 00:27:39;;;;;;;2.22;1.60;;;25.40;38.40;;;;;;5035727;28;20029;-67
2023/06/14 00:30:05;;;;;;;2.13;1.45;;;25.40;38.30;;;;;;5035868;28;20025;-67
2023/06/14 00:32:31;;;;;;;1.98;1.50;;;25.40;38.40;;;;;;5031525;28;20043;-67
2023/06/14 00:34:56;;;;;;;2.08;1.50;;;25.40;38.40;;;;;;5032484;28;20022;-67
2023/06/14 00:37:22;;;;;;;2.50;1.60;;;25.40;38.40;;;;;;5034612;28;20048;-67
2023/06/14 00:39:47;;;;;;;2.17;1.52;;;25.40;38.40;;;;;;5028353;28;20030;-67
2023/06/14 00:42:26;;;;;;;2.15;1.70;;;25.40;38.50;;;;;;5032580;28;20469;-67
2023/06/14 00:44:52;;;;;;;3.25;1.70;;;25.40;38.50;;;;;;5031313;28;20083;-67
2023/06/14 00:47:18;;;;;;;2.50;1.60;;;25.40;38.50;;;;;;5033662;28;20029;-67
2023/06/14 00:49:47;;;;;;;2.45;1.60;;;25.40;38.50;;;;;;5034810;28;20051;-67
2023/06/14 00:52:14;;;;;;;2.33;1.70;;;25.40;38.60;;;;;;5032515;28;20029;-67
2023/06/14 00:54:41;;;;;;;1.92;1.52;;;25.30;38.50;;;;;;5032137;28;20044;-67
2023/06/14 00:57:07;;;;;;;2.00;1.50;;;25.40;38.60;;;;;;5034466;28;20022;-67
2023/06/14 00:59:35;;;;;;;2.25;1.60;;;25.40;38.70;;;;;;5032392;28;20029;-67
2023/06/14 01:02:00;;;;;;;2.30;1.60;;;25.30;38.60;;;;;;5035438;28;20029;-67
2023/06/14 01:04:26;;;;;;;2.40;1.60;;;25.30;38.60;;;;;;5034148;28;20036;-66
2023/06/14 01:07:13;;;;;;;2.10;1.50;;;25.30;38.60;;;;;;5017913;28;20029;-67
2023/06/14 01:10:04;;;;;;;2.35;1.50;;;25.30;38.60;;;;;;5031711;28;20542;-66
2023/06/14 01:12:50;;;;;;;2.10;1.65;;;25.30;38.70;;;;;;5036921;28;20128;-68
2023/06/14 01:15:17;;;;;;;2.38;1.60;;;25.30;38.70;;;;;;5035742;28;20103;-67
2023/06/14 01:17:46;;;;;;;2.28;1.70;;;25.30;38.70;;;;;;5037020;28;20507;-67
2023/06/14 01:20:14;;;;;;;2.17;1.40;;;25.30;38.70;;;;;;5037305;28;20142;-66
2023/06/14 01:22:53;;;;;;;2.10;1.63;;;25.20;38.70;;;;;;5035857;28;20466;-67
2023/06/14 01:25:23;;;;;;;1.60;1.35;;;25.20;38.70;;;;;;5034501;28;20028;-66
2023/06/14 01:27:51;;;;;;;2.05;1.48;;;25.20;39.30;;;;;;5038162;28;20032;-67
2023/06/14 01:30:17;;;;;;;2.00;1.40;;;25.20;38.80;;;;;;5038214;28;20029;-66
2023/06/14 01:32:44;;;;;;;1.90;1.50;;;25.20;38.80;;;;;;5034371;28;20026;-67
2023/06/14 01:35:10;;;;;;;2.63;1.60;;;25.20;38.90;;;;;;5040745;28;20026;-65
2023/06/14 01:37:37;;;;;;;1.88;1.38;;;25.20;38.90;;;;;;5036358;28;20033;-66
2023/06/14 01:40:06;;;;;;;2.33;1.60;;;25.20;38.90;;;;;;5035279;28;20473;-66
2023/06/14 01:42:35;;;;;;;2.63;1.52;;;25.20;38.90;;;;;;5036798;28;20096;-67
2023/06/14 01:45:03;;;;;;;2.47;1.65;;;25.10;38.90;;;;;;5039904;28;20083;-67
2023/06/14 01:47:30;;;;;;;2.10;1.50;;;25.10;38.90;;;;;;5034860;28;20093;-67
2023/06/14 01:49:55;;;;;;;1.88;1.50;;;25.10;38.90;;;;;;5036807;28;20602;-66
2023/06/14 01:52:22;;;;;;;2.25;1.48;;;25.10;38.90;;;;;;5036503;28;20092;-67
2023/06/14 01:54:49;;;;;;;1.77;1.40;;;25.10;39.00;;;;;;5036589;28;20108;-66
2023/06/14 01:57:15;;;;;;;2.15;1.60;;;25.10;39.00;;;;;;5041561;28;20033;-67
2023/06/14 01:59:41;;;;;;;1.70;1.40;;;25.10;39.00;;;;;;5018286;28;20025;-67
2023/06/14 02:02:06;;;;;;;2.00;1.50;;;25.10;39.10;;;;;;5038784;28;20049;-67
2023/06/14 02:04:32;;;;;;;1.85;1.40;;;25.10;39.10;;;;;;5034730;28;20082;-66
2023/06/14 02:06:58;;;;;;;1.85;1.38;;;25.10;39.10;;;;;;5038826;28;20392;-67
2023/06/14 02:09:23;;;;;;;1.90;1.38;;;25.10;39.10;;;;;;5033744;28;20088;-66
2023/06/14 02:11:49;;;;;;;2.00;1.40;;;25.10;39.10;;;;;;5039844;28;20033;-67
2023/06/14 02:14:16;;;;;;;1.80;1.45;;;25.10;39.10;;;;;;5035351;28;20037;-67
2023/06/14 02:16:48;;;;;;;2.03;1.40;;;25.00;39.10;;;;;;5038204;28;20496;-66
2023/06/14 02:19:17;;;;;;;2.17;1.55;;;25.00;39.10;;;;;;5037495;28;20018;-66
2023/06/14 02:21:43;;;;;;;2.05;1.52;;;25.00;39.10;;;;;;5036337;28;20472;-67
2023/06/14 02:24:08;;;;;;;2.00;1.40;;;25.00;39.10;;;;;;5033217;28;20072;-66
2023/06/14 02:26:34;;;;;;;1.70;1.30;;;25.00;39.20;;;;;;5034532;28;20588;-67
2023/06/14 02:29:00;;;;;;;2.08;1.45;;;25.00;39.20;;;;;;5035293;28;20025;-66
2023/06/14 02:31:29;;;;;;;2.15;1.48;;;25.00;39.20;;;;;;5038194;28;20476;-66
2023/06/14 02:33:56;;;;;;;2.40;1.50;;;25.00;39.20;;;;;;5035424;28;20088;-64
2023/06/14 02:36:22;;;;;;;2.15;1.40;;;25.00;39.20;;;;;;5037073;28;20549;-64
2023/06/14 02:38:47;;;;;;;2.03;1.38;;;25.00;39.30;;;;;;5038332;28;20104;-65
2023/06/14 02:41:13;;;;;;;2.63;1.40;;;25.00;39.30;;;;;;5035802;28;20307;-65
2023/06/14 02:43:39;;;;;;;2.88;1.80;;;25.00;39.30;;;;;;5038565;28;20029;-64
2023/06/14 02:46:04;;;;;;;2.30;1.50;;;24.90;39.30;;;;;;5039809;28;20157;-64
2023/06/14 02:48:30;;;;;;;2.08;1.50;;;24.90;39.30;;;;;;5037798;28;20488;-64
2023/06/14 02:50:56;;;;;;;1.77;1.25;;;24.90;39.30;;;;;;5037399;28;20037;-65
2023/06/14 02:53:22;;;;;;;2.22;1.50;;;24.90;39.30;;;;;;5038491;28;20021;-64
2023/06/14 02:55:48;;;;;;;1.85;1.40;;;24.90;39.30;;;;;;5035504;28;20025;-64
2023/06/14 02:58:14;;;;;;;2.22;1.63;;;24.90;39.30;;;;;;5034779;28;20350;-65
2023/06/14 03:00:40;;;;;;;1.70;1.30;;;24.90;39.30;;;;;;5032919;28;20070;-64
2023/06/14 03:03:13;;;;;;;1.77;1.38;;;24.90;39.30;;;;;;5033817;28;20033;-65
2023/06/14 03:05:47;;;;;;;1.90;1.50;;;24.90;39.30;;;;;;5036483;28;20056;-64
2023/06/14 03:08:19;;;;;;;2.20;1.40;;;24.90;39.40;;;;;;5038705;28;20381;-64
2023/06/14 03:10:48;;;;;;;2.00;1.40;;;24.80;39.30;;;;;;5035562;28;20505;-65
2023/06/14 03:13:15;;;;;;;2.10;1.60;;;24.80;39.40;;;;;;5036023;28;20362;-64
2023/06/14 03:15:42;;;;;;;1.80;1.20;;;24.80;39.40;;;;;;5040751;28;20097;-64
2023/06/14 03:18:09;;;;;;;1.88;1.40;;;24.80;39.40;;;;;;5032740;28;20367;-64
2023/06/14 03:20:38;;;;;;;1.67;1.30;;;24.80;39.40;;;;;;5031481;28;20397;-64
2023/06/14 03:23:05;;;;;;;2.05;1.45;;;24.80;39.40;;;;;;5032856;28;20086;-64
2023/06/14 03:25:31;;;;;;;2.75;1.40;;;24.80;39.40;;;;;;5033649;28;20037;-65
2023/06/14 03:27:57;;;;;;;1.65;1.27;;;24.80;39.40;;;;;;5037249;28;20434;-64
2023/06/14 03:30:23;;;;;;;2.13;1.40;;;24.80;39.40;;;;;;5034817;28;20090;-65
2023/06/14 03:32:48;;;;;;;2.00;1.50;;;24.80;39.50;;;;;;5034299;28;20036;-64
2023/06/14 03:35:17;;;;;;;1.95;1.42;;;24.80;39.50;;;;;;5034820;28;20095;-64
2023/06/14 03:37:46;;;;;;;1.80;1.30;;;24.80;39.50;;;;;;5038382;28;20020;-65
2023/06/14 03:40:13;;;;;;;2.05;1.33;;;24.80;39.50;;;;;;5032639;28;20078;-64
2023/06/14 03:42:40;;;;;;;2.17;1.60;;;24.80;39.50;;;;;;5033437;28;20473;-64
2023/06/14 03:45:06;;;;;;;2.22;1.30;;;24.80;39.50;;;;;;5034243;28;20040;-64
2023/06/14 03:47:32;;;;;;;1.90;1.50;;;24.80;39.50;;;;;;5034689;28;20378;-64
2023/06/14 03:49:58;;;;;;;2.30;1.63;;;24.80;39.50;;;;;;5030800;28;20660;-65
2023/06/14 03:52:24;;;;;;;1.98;1.50;;;24.80;39.60;;;;;;5036587;28;20128;-65
2023/06/14 03:54:51;;;;;;;1.63;1.30;;;24.80;39.60;;;;;;5033486;28;20056;-64
2023/06/14 03:57:17;;;;;;;1.83;1.42;;;24.80;39.60;;;;;;5033058;28;20052;-64
2023/06/14 03:59:43;;;;;;;1.65;1.30;;;24.70;39.50;;;;;;5018991;28;20434;-64
2023/06/14 04:02:15;;;;;;;2.10;1.50;;;24.70;39.60;;;;;;5038688;28;20028;-64
2023/06/14 04:04:44;;;;;;;1.83;1.30;;;24.70;39.60;;;;;;5035574;28;20476;-64
2023/06/14 04:07:11;;;;;;;1.70;1.40;;;24.70;39.60;;;;;;5035090;28;20032;-64
2023/06/14 04:09:37;;;;;;;1.77;1.35;;;24.70;39.60;;;;;;5034036;28;20047;-65
2023/06/14 04:12:03;;;;;;;2.00;1.50;;;24.70;39.60;;;;;;5033165;28;20033;-64
2023/06/14 04:14:30;;;;;;;2.38;1.50;;;24.70;39.60;;;;;;5035433;28;20393;-64
2023/06/14 04:16:56;;;;;;;1.92;1.40;;;24.70;39.60;;;;;;5036418;28;20505;-64
2023/06/14 04:19:22;;;;;;;2.00;1.55;;;24.70;39.60;;;;;;5035187;28;20029;-64
2023/06/14 04:21:47;;;;;;;1.75;1.23;;;24.70;39.60;;;;;;5036392;28;20496;-65
2023/06/14 04:24:13;;;;;;;1.83;1.30;;;24.60;39.60;;;;;;5035733;28;20036;-64
2023/06/14 04:26:44;;;;;;;2.13;1.60;;;24.70;39.60;;;;;;5034974;28;20029;-64
2023/06/14 04:29:14;;;;;;;1.98;1.40;;;24.60;39.60;;;;;;5038322;28;20492;-64
2023/06/14 04:31:44;;;;;;;1.88;1.35;;;24.60;39.60;;;;;;5003544;28;20078;-64
2023/06/14 04:34:16;;;;;;;2.08;1.30;;;24.60;39.60;;;;;;5037537;28;20032;-64
2023/06/14 04:36:48;;;;;;;1.98;1.40;;;24.60;39.60;;;;;;5031907;28;20349;-64
2023/06/14 04:39:17;;;;;;;1.90;1.40;;;24.60;39.70;;;;;;5030584;28;20481;-64
2023/06/14 04:41:43;;;;;;;2.22;1.58;;;24.60;39.70;;;;;;5030479;28;20020;-64
2023/06/14 04:44:09;;;;;;;1.70;1.30;;;24.60;39.70;;;;;;5033040;28;20041;-65
2023/06/14 04:46:45;;;;;;;1.85;1.35;;;24.60;39.70;;;;;;5029391;28;20030;-65
2023/06/14 04:49:15;;;;;;;1.60;1.27;;;24.50;39.70;;;;;;5032002;28;20048;-64
2023/06/14 04:51:42;;;;;;;2.03;1.50;;;24.50;39.70;;;;;;5035945;28;20018;-64
2023/06/14 04:54:15;;;;;;;1.73;1.40;;;24.60;39.70;;;;;;5032382;28;20017;-64
2023/06/14 04:56:46;;;;;;;1.80;1.30;;;24.60;39.70;;;;;;5033592;28;20026;-65
2023/06/14 04:59:12;;;;;;;1.60;1.30;;;24.50;39.70;;;;;;5033535;28;20026;-64
2023/06/14 05:01:38;;;;;;;1.90;1.38;;;24.60;39.70;;;;;;5033252;28;20485;-65
2023/06/14 05:04:04;;;;;;;2.30;1.45;;;24.50;39.70;;;;;;5035300;28;20025;-64
2023/06/14 05:06:30;;;;;;;1.90;1.38;;;24.50;39.70;;;;;;5032477;28;20032;-65
2023/06/14 05:08:56;;;;;;;2.03;1.48;;;24.50;39.70;;;;;;5034593;28;20044;-64
2023/06/14 05:11:23;;;;;;;2.05;1.50;;;24.50;39.80;;;;;;5034927;28;20051;-64
2023/06/14 05:13:50;;;;;;;2.05;1.45;;;24.50;39.80;;;;;;5036589;28;20025;-65
2023/06/14 05:16:19;;;;;;;2.13;1.45;;;24.50;39.80;;;;;;5021935;28;20469;-64
2023/06/14 05:18:45;;;;;;;1.90;1.38;;;24.50;39.80;;;;;;5028939;28;20083;-65
2023/06/14 05:21:11;;;;;;;1.67;1.35;;;24.50;39.80;;;;;;5029990;28;20034;-66
2023/06/14 05:23:36;;;;;;;1.77;1.40;;;24.50;39.80;;;;;;5035156;28;20037;-65
2023/06/14 05:26:04;;;;;;;2.00;1.50;;;24.50;39.90;;;;;;5033842;28;20076;-64
2023/06/14 05:28:30;;;;;;;2.13;1.42;;;24.50;40.00;;;;;;5034874;28;20092;-66
2023/06/14 05:30:56;;;;;;;2.70;1.80;;;24.50;39.90;;;;;;5034981;28;20486;-67
2023/06/14 05:33:22;;;;;;;1.88;1.40;;;24.50;40.00;;;;;;5035056;28;20033;-65
2023/06/14 05:35:47;;;;;;;2.05;1.40;;;24.50;40.00;;;;;;5032304;28;20481;-66
2023/06/14 05:38:13;;;;;;;1.80;1.40;;;24.50;40.00;;;;;;5033397;28;20036;-64
2023/06/14 05:40:38;;;;;;;1.70;1.38;;;24.50;40.00;;;;;;5033065;28;20447;-66
2023/06/14 05:43:04;;;;;;;2.70;1.40;;;24.50;40.50;;;;;;5034143;28;20116;-66
2023/06/14 05:45:30;;;;;;;2.33;1.50;;;24.50;40.00;;;;;;5033327;28;20030;-65
2023/06/14 05:47:55;;;;;;;1.70;1.30;;;24.50;40.00;;;;;;5035056;28;20043;-66
2023/06/14 05:50:21;;;;;;;2.47;1.58;;;24.60;40.10;;;;;;5034720;28;20035;-66
2023/06/14 05:52:47;;;;;;;1.83;1.40;;;24.60;40.10;;;;;;5032500;28;20116;-67
2023/06/14 05:55:13;;;;;;;2.10;1.33;;;24.60;40.00;;;;;;5031401;28;20107;-64
2023/06/14 05:57:38;;;;;;;2.00;1.30;;;24.60;40.00;;;;;;5034440;28;20033;-67
2023/06/14 06:00:14;;;;;;;1.85;1.48;;;24.60;40.00;;;;;;5036912;28;20018;-66
2023/06/14 06:02:42;;;;;;;2.10;1.38;;;24.70;40.00;;;;;;5039286;28;20018;-65
2023/06/14 06:05:08;;;;;;;2.13;1.50;;;24.70;40.00;;;;;;5040426;28;20137;-67
2023/06/14 06:07:34;;;;;;;1.65;1.27;;;24.70;40.10;;;;;;5037008;28;20500;-65
2023/06/14 06:10:00;;;;;;;1.30;1.10;;;24.70;40.00;;;;;;5037734;28;20033;-65
2023/06/14 06:12:25;;;;;;;3.08;1.38;;;24.70;40.00;;;;;;5039603;28;20025;-66
2023/06/14 06:14:51;;;;;;;1.60;1.20;;;24.70;40.00;;;;;;5039299;28;20040;-65
2023/06/14 06:17:16;;;;;;;1.90;1.50;;;24.80;40.00;;;;;;5036583;28;20025;-65
2023/06/14 06:19:42;;;;;;;2.38;1.50;;;24.80;39.90;;;;;;5020773;28;20460;-65
2023/06/14 06:22:07;;;;;;;2.45;1.55;;;24.80;40.00;;;;;;5036029;28;20449;-67
2023/06/14 06:24:33;;;;;;;1.92;1.45;;;24.80;40.10;;;;;;5038106;28;20369;-66
2023/06/14 06:27:00;;;;;;;1.98;1.40;;;24.80;40.10;;;;;;5036397;28;20074;-66
2023/06/14 06:29:26;;;;;;;2.28;1.60;;;24.80;40.00;;;;;;5033883;28;20029;-65
2023/06/14 06:31:51;;;;;;;1.75;1.40;;;24.80;39.90;;;;;;5035828;28;20033;-65
2023/06/14 06:34:17;;;;;;;1.67;1.27;;;24.90;40.00;;;;;;5039847;28;20033;-65
2023/06/14 06:36:42;;;;;;;1.80;1.40;;;24.90;39.90;;;;;;5035004;28;20073;-65
2023/06/14 06:39:09;;;;;;;2.30;1.60;;;24.90;39.90;;;;;;5038056;28;20017;-64
2023/06/14 06:41:39;;;;;;;1.80;1.35;;;24.90;39.90;;;;;;5039451;28;20029;-66
2023/06/14 06:44:05;;;;;;;2.22;1.38;;;24.90;39.80;;;;;;5030577;28;20341;-65
2023/06/14 06:46:31;;;;;;;2.30;1.60;;;24.90;39.80;;;;;;5037791;28;20094;-65
2023/06/14 06:48:57;;;;;;;2.22;1.40;;;24.90;39.80;;;;;;5036565;28;20056;-65
2023/06/14 06:51:22;;;;;;;2.05;1.35;;;25.00;39.90;;;;;;5033724;28;20033;-64
2023/06/14 06:53:53;;;;;;;1.85;1.45;;;25.00;39.80;;;;;;5021521;28;20032;-66
2023/06/14 06:56:19;;;;;;;1.98;1.40;;;25.00;39.80;;;;;;5040749;28;20476;-65
2023/06/14 06:58:45;;;;;;;1.88;1.40;;;25.00;39.70;;;;;;5040028;28;20044;-66
2023/06/14 07:01:11;;;;;;;1.77;1.30;;;25.10;39.80;;;;;;5038340;28;20489;-65
2023/06/14 07:03:37;;;;;;;1.80;1.30;;;25.10;39.80;;;;;;5039646;28;20098;-67
2023/06/14 07:06:02;;;;;;;1.63;1.33;;;25.10;39.80;;;;;;5037830;28;20051;-67
2023/06/14 07:08:28;;;;;;;1.98;1.40;;;25.10;39.90;;;;;;5036595;28;20437;-66
2023/06/14 07:10:54;;;;;;;1.67;1.30;;;25.10;39.90;;;;;;5036505;28;20108;-66
2023/06/14 07:13:20;;;;;;;1.98;1.50;;;25.10;39.90;;;;;;5037394;28;20031;-65
2023/06/14 07:15:46;;;;;;;2.05;1.33;;;25.10;39.80;;;;;;5036478;28;20044;-66
2023/06/14 07:18:11;;;;;;;2.53;1.23;;;25.10;39.80;;;;;;5034013;28;20097;-65
2023/06/14 07:20:40;;;;;;;1.92;1.35;;;25.10;39.80;;;;;;5034838;28;20528;-67
2023/06/14 07:23:05;;;;;;;1.65;1.40;;;25.10;39.70;;;;;;5021683;28;20066;-67
2023/06/14 07:25:31;;;;;;;2.05;1.50;;;25.10;39.70;;;;;;5032998;28;20064;-67
2023/06/14 07:27:57;;;;;;;2.20;1.60;;;25.10;39.80;;;;;;5037614;28;20408;-66
2023/06/14 07:30:25;;;;;;;1.60;1.30;;;25.10;39.80;;;;;;5035055;28;20528;-66
2023/06/14 07:32:52;;;;;;;2.08;1.58;;;25.10;39.80;;;;;;5036811;28;20052;-66
2023/06/14 07:35:18;;;;;;;1.95;1.40;;;25.10;39.80;;;;;;5035021;28;20029;-66
2023/06/14 07:37:44;;;;;;;2.75;1.45;;;25.10;39.80;;;;;;5033869;28;20350;-67
2023/06/14 07:40:10;;;;;;;2.67;1.50;;;25.20;39.90;;;;;;5034630;28;20029;-65
2023/06/14 07:42:36;;;;;;;2.78;1.25;;;25.20;39.90;;;;;;5033896;28;20024;-65
2023/06/14 07:45:05;;;;;;;1.90;1.40;;;25.20;39.80;;;;;;5040834;28;20489;-64
2023/06/14 07:47:31;;;;;;;1.77;1.30;;;25.20;39.80;;;;;;5036527;28;20961;-65
2023/06/14 07:49:57;;;;;;;3.28;1.38;;;25.20;39.80;;;;;;5037950;28;20025;-66
2023/06/14 07:52:22;;;;;;;2.42;1.45;;;25.20;39.80;;;;;;5029630;28;20393;-66
2023/06/14 07:54:48;;;;;;;2.25;1.42;;;25.20;39.80;;;;;;5037201;28;20039;-65
2023/06/14 07:57:13;;;;;;;1.80;1.40;;;25.20;39.80;;;;;;5018423;28;20573;-66
2023/06/14 07:59:39;;;;;;;1.52;1.10;;;25.30;39.80;;;;;;5035157;28;20774;-65
2023/06/14 08:02:05;;;;;;;2.50;1.45;;;25.20;39.80;;;;;;5035982;28;20025;-66
2023/06/14 08:04:32;;;;;;;2.08;1.50;;;25.30;39.90;;;;;;5032424;28;20025;-65
2023/06/14 08:06:57;;;;;;;1.85;1.30;;;25.30;39.90;;;;;;5032309;28;20095;-66
2023/06/14 08:09:24;;;;;;;2.00;1.40;;;25.30;39.90;;;;;;5035218;28;20465;-65
2023/06/14 08:11:50;;;;;;;1.42;1.17;;;25.30;39.90;;;;;;5037471;28;20112;-65
2023/06/14 08:14:16;;;;;;;1.80;1.30;;;25.30;40.00;;;;;;5037254;28;20103;-65
2023/06/14 08:16:41;;;;;;;1.95;1.40;;;25.30;39.90;;;;;;5033219;28;20037;-66
2023/06/14 08:19:08;;;;;;;1.65;1.25;;;25.30;39.90;;;;;;5034442;28;20440;-65
2023/06/14 08:21:36;;;;;;;1.80;1.30;;;25.30;39.90;;;;;;5035907;28;20485;-65
2023/06/14 08:24:02;;;;;;;1.92;1.40;;;25.30;39.90;;;;;;5034246;28;20425;-65
2023/06/14 08:26:31;;;;;;;1.55;1.30;;;25.30;39.90;;;;;;5036097;28;20025;-65
2023/06/14 08:28:57;;;;;;;;;;;25.30;39.90;;;;;;5036078;28;20056;-65
2023/06/14 08:31:23;;;;;;;2.20;1.23;;;25.40;39.90;;;;;;5036036;28;19963;-66
2023/06/14 08:33:49;;;;;;;2.05;1.30;;;25.40;40.00;;;;;;5033364;28;20515;-65
2023/06/14 08:36:15;;;;;;;1.75;1.25;;;25.40;40.00;;;;;;5034298;28;20212;-65
2023/06/14 08:38:40;;;;;;;3.38;1.50;;;25.30;39.90;;;;;;5035243;28;20030;-65
2023/06/14 08:41:06;;;;;;;1.58;1.40;;;25.30;39.80;;;;;;5033942;28;20032;-65
2023/06/14 08:43:33;;;;;;;1.45;1.10;;;25.40;39.60;;;;;;5036473;28;20100;-65
2023/06/14 08:46:02;;;;;;;2.30;1.50;;;25.40;39.60;;;;;;5032002;28;20030;-65
2023/06/14 08:48:28;;;;;;;1.95;1.42;;;25.40;39.60;;;;;;5036120;28;20180;-65
2023/06/14 08:51:01;;;;;;;2.90;1.33;;;25.40;39.60;;;;;;5033323;28;20120;-66
2023/06/14 08:53:31;;;;;;;1.90;1.40;;;25.40;39.50;;;;;;5032201;28;20385;-66
2023/06/14 08:56:01;;;;;;;2.20;1.30;;;25.40;39.50;;;;;;5035709;28;20030;-65
2023/06/14 08:58:29;;;;;;;1.88;1.30;;;25.40;39.40;;;;;;5033649;28;20108;-65
2023/06/14 09:00:55;;;;;;;2.10;1.30;;;25.40;39.40;;;;;;5034317;28;20393;-65
2023/06/14 09:03:23;;;;;;;2.30;1.60;;;25.40;39.40;;;;;;5035129;28;20021;-66
2023/06/14 09:05:49;;;;;;;1.77;1.27;;;25.50;39.40;;;;;;5034399;28;20052;-65
2023/06/14 09:08:16;;;;;;;2.05;1.60;;;25.40;39.40;;;;;;5014168;28;20045;-65
2023/06/14 09:10:41;;;;;;;2.35;1.40;;;25.50;39.50;;;;;;5034621;28;20035;-64
2023/06/14 09:13:07;;;;;;;2.22;1.60;;;25.50;39.50;;;;;;5031583;28;20136;-64
2023/06/14 09:15:35;;;;;;;2.10;1.50;;;25.40;39.50;;;;;;5035794;28;20033;-65
2023/06/14 09:18:02;;;;;;;1.52;1.17;;;25.50;39.60;;;;;;5033976;28;20044;-65
2023/06/14 09:20:30;;;;;;;1.92;1.35;;;25.50;39.60;;;;;;5035248;28;20021;-68
2023/06/14 09:22:56;;;;;;;2.78;1.40;;;25.40;39.60;;;;;;5032231;28;20052;-65
2023/06/14 09:25:22;;;;;;;2.20;1.30;;;25.50;39.60;;;;;;5033068;28;20026;-65
2023/06/14 09:27:48;;;;;;;1.80;1.40;;;25.50;39.60;;;;;;5034851;28;20048;-64
2023/06/14 09:30:14;;;;;;;2.35;1.20;;;25.50;39.70;;;;;;5035026;28;20053;-65
2023/06/14 09:32:40;;;;;;;1.90;1.20;;;25.50;39.70;;;;;;5004323;28;20033;-65
2023/06/14 09:35:07;;;;;;;2.03;1.20;;;25.50;39.70;;;;;;5036899;28;20029;-64
2023/06/14 09:37:34;;;;;;;1.20;1.00;;;25.50;39.70;;;;;;5038529;28;20203;-65
2023/06/14 09:40:00;;;;;;;1.38;1.10;;;25.50;39.80;;;;;;5037374;28;20030;-66
2023/06/14 09:42:27;;;;;;;1.95;1.40;;;25.50;39.90;;;;;;5036103;28;20033;-65
2023/06/14 09:44:54;;;;;;;1.77;1.25;;;25.50;39.90;;;;;;5034073;28;20399;-64
2023/06/14 09:47:21;;;;;;;1.70;1.17;;;25.50;39.90;;;;;;5037412;28;20464;-64
2023/06/14 09:49:47;;;;;;;2.05;1.38;;;25.50;39.80;;;;;;5037293;28;20029;-64
2023/06/14 09:52:17;;;;;;;1.80;1.30;;;25.50;39.90;;;;;;5037775;28;20044;-65
2023/06/14 09:54:48;;;;;;;2.60;1.50;;;25.50;39.90;;;;;;5039550;28;20089;-65
2023/06/14 09:57:16;;;;;;;2.00;1.40;;;25.60;39.90;;;;;;5039529;28;20055;-65
2023/06/14 09:59:47;;;;;;;1.60;1.20;;;25.60;39.90;;;;;;5034948;28;20132;-65
2023/06/14 10:02:18;;;;;;;1.42;1.20;;;25.60;39.90;;;;;;5037378;28;20370;-65
2023/06/14 10:05:00;;;;;;;2.08;1.33;;;25.60;39.80;;;;;;5035002;28;20055;-64
2023/06/14 10:07:30;;;;;;;1.52;1.20;;;25.60;39.80;;;;;;5035346;28;20046;-64
2023/06/14 10:09:56;;;;;;;1.73;1.30;;;25.60;39.90;;;;;;5020077;28;20033;-64
2023/06/14 10:12:22;;;;;;;1.85;1.30;;;25.70;40.00;;;;;;5039399;28;20040;-64
2023/06/14 10:14:55;;;;;;;1.63;1.30;;;25.70;40.00;;;;;;5038531;28;20032;-64
2023/06/14 10:17:26;;;;;;;1.88;1.23;;;25.60;39.90;;;;;;5036454;28;20035;-64
2023/06/14 10:20:03;;;;;;;1.58;1.10;;;25.60;39.90;;;;;;5036863;28;20022;-65
2023/06/14 10:22:42;;;;;;;1.70;1.15;;;25.60;39.90;;;;;;5031778;28;20025;-64
2023/06/14 10:25:13;;;;;;;1.67;1.20;;;25.70;40.00;;;;;;5036083;28;20054;-64
2023/06/14 10:27:39;;;;;;;2.00;1.30;;;25.70;40.00;;;;;;5036961;28;20449;-64
2023/06/14 10:30:07;;;;;;;1.50;1.10;;;25.70;40.00;;;;;;5005546;28;20116;-64
2023/06/14 10:32:33;;;;;;;1.90;1.38;;;25.70;40.00;;;;;;5036214;28;20492;-65
2023/06/14 10:35:00;;;;;;;1.50;1.20;;;25.70;40.00;;;;;;5032398;28;20033;-66
2023/06/14 10:37:26;;;;;;;1.33;1.10;;;25.70;40.00;;;;;;5035076;28;20039;-64
2023/06/14 10:39:53;;;;;;;2.22;1.30;;;25.70;40.00;;;;;;5038237;28;20029;-65
2023/06/14 10:42:19;;;;;;;1.90;1.40;;;25.70;40.00;;;;;;5033058;28;20096;-65
2023/06/14 10:44:51;;;;;;;1.92;1.38;;;25.70;39.80;;;;;;5034941;28;20025;-65
2023/06/14 10:47:22;;;;;;;1.83;1.30;;;25.70;39.70;;;;;;5037668;28;20037;-65
2023/06/14 10:49:55;;;;;;;2.03;1.40;;;25.80;39.60;;;;;;5036978;28;20427;-65
2023/06/14 10:52:24;;;;;;;2.60;1.45;;;25.70;39.50;;;;;;5033487;28;20021;-65
2023/06/14 10:55:18;;;;;;;2.22;1.50;;;25.70;39.50;;;;;;5033140;28;20406;-65
2023/06/14 10:57:52;;;;;;;2.17;1.40;;;25.80;39.50;;;;;;5017498;28;20033;-65
2023/06/14 11:00:24;;;;;;;2.25;1.50;;;25.80;39.50;;;;;;5035208;28;20021;-65
2023/06/14 11:03:08;;;;;;;1.70;1.30;;;25.80;39.60;;;;;;5037680;28;20477;-65
2023/06/14 11:05:47;;;;;;;2.75;1.50;;;25.80;39.50;;;;;;5036104;28;20109;-65
2023/06/14 11:08:40;;;;;;;2.10;1.50;;;25.80;39.50;;;;;;5037227;28;20032;-65
2023/06/14 11:11:09;;;;;;;3.25;1.50;;;25.80;39.40;;;;;;5032137;28;20041;-64
2023/06/14 11:13:38;;;;;;;2.17;1.48;;;25.80;39.40;;;;;;5034699;28;20021;-65
2023/06/14 11:16:11;;;;;;;1.98;1.45;;;25.80;39.40;;;;;;5036537;28;20541;-65
2023/06/14 11:18:37;;;;;;;2.13;1.40;;;25.80;39.40;;;;;;5038452;28;20033;-65
2023/06/14 11:21:03;;;;;;;2.10;1.50;;;25.80;39.40;;;;;;5038093;28;20385;-64
2023/06/14 11:23:29;;;;;;;2.08;1.40;;;25.80;39.30;;;;;;5036921;28;20021;-64
2023/06/14 11:25:54;;;;;;;1.70;1.30;;;25.80;39.40;;;;;;5037264;28;20032;-64
2023/06/14 11:28:21;;;;;;;2.00;1.30;;;25.80;39.40;;;;;;5035658;28;20029;-63
2023/06/14 11:30:48;;;;;;;1.98;1.50;;;25.80;39.50;;;;;;5014889;28;20366;-64
2023/06/14 11:33:20;;;;;;;2.10;1.30;;;25.80;39.50;;;;;;5036225;28;20123;-64
2023/06/14 11:35:45;;;;;;;2.05;1.20;;;25.80;39.50;;;;;;5034182;28;20124;-64
2023/06/14 11:38:11;;;;;;;2.30;1.42;;;25.80;39.60;;;;;;5033466;28;20104;-64
2023/06/14 11:40:38;;;;;;;2.08;1.50;;;25.80;39.60;;;;;;5036092;28;20672;-64
2023/06/14 11:43:04;;;;;;;2.42;1.40;;;25.80;39.70;;;;;;5034653;28;20039;-66
2023/06/14 11:45:30;;;;;;;2.85;1.38;;;25.80;39.80;;;;;;5036135;28;20493;-64
2023/06/14 11:47:58;;;;;;;1.63;1.10;;;25.90;40.00;;;;;;5037359;28;20549;-63
2023/06/14 11:50:26;;;;;;;1.73;1.13;;;25.80;39.90;;;;;;5032522;28;20061;-65
2023/06/14 11:52:56;;;;;;;2.03;1.30;;;25.80;39.90;;;;;;5027284;28;20031;-64
2023/06/14 11:55:23;;;;;;;2.03;1.42;;;25.80;40.00;;;;;;5033691;28;20121;-65
2023/06/14 11:57:49;;;;;;;1.73;1.20;;;25.80;40.10;;;;;;5032807;28;20046;-64
2023/06/14 12:00:16;;;;;;;2.90;1.30;;;25.90;40.20;;;;;;5033651;28;20030;-64
2023/06/14 12:02:42;;;;;;;1.95;1.27;;;25.90;40.10;;;;;;5034529;28;20056;-64
2023/06/14 12:05:11;;;;;;;1.90;1.40;;;25.90;40.10;;;;;;5033003;28;20568;-65
2023/06/14 12:07:39;;;;;;;2.50;1.52;;;25.90;40.10;;;;;;5029969;28;20025;-64
2023/06/14 12:10:08;;;;;;;2.15;1.50;;;25.90;40.20;;;;;;5036350;28;20074;-63
2023/06/14 12:12:38;;;;;;;2.50;1.60;;;25.90;40.20;;;;;;5031525;28;20049;-63
2023/06/14 12:15:06;;;;;;;1.73;1.10;;;25.90;40.20;;;;;;5034491;28;20421;-66
2023/06/14 12:17:36;;;;;;;2.35;1.20;;;25.90;40.30;;;;;;5034735;28;20472;-65
2023/06/14 12:20:21;;;;;;;2.58;1.50;;;25.90;40.30;;;;;;5036241;28;20508;-66
2023/06/14 12:23:01;;;;;;;2.38;1.40;;;25.90;40.30;;;;;;5030897;28;20021;-63
2023/06/14 12:25:35;;;;;;;2.20;1.35;;;25.90;40.40;;;;;;5033796;28;20048;-63
2023/06/14 12:28:08;;;;;;;2.22;1.38;;;25.90;40.40;;;;;;5035572;28;20504;-64
2023/06/14 12:30:35;;;;;;;1.98;1.20;;;26.00;40.50;;;;;;5018740;28;20036;-66
2023/06/14 12:33:02;;;;;;;2.20;1.40;;;26.00;40.50;;;;;;5031550;28;20049;-64
2023/06/14 12:35:27;;;;;;;1.80;1.23;;;26.00;40.60;;;;;;5033942;28;20036;-64
2023/06/14 12:37:53;;;;;;;1.73;1.20;;;26.00;40.50;;;;;;5034425;28;20025;-64
2023/06/14 12:40:19;;;;;;;1.98;1.10;;;26.00;40.60;;;;;;5033538;28;20021;-65
2023/06/14 12:42:47;;;;;;;1.65;1.17;;;26.00;40.60;;;;;;5032102;28;20029;-65
2023/06/14 12:45:13;;;;;;;3.88;1.50;;;26.00;40.70;;;;;;5035414;28;20484;-67
2023/06/14 12:47:39;;;;;;;1.80;1.35;;;26.00;40.60;;;;;;5032604;28;20040;-68
2023/06/14 12:50:06;;;;;;;2.08;1.30;;;26.00;40.50;;;;;;5036513;28;20021;-68